Time;durP1;ratioP1;P1;durP2;ratioP2;P2;SDS_P1;SDS_P2;PMS_P1;PMS_P2;Temp;Humidity;BMP_temperature;BMP_pressure;BME280_temperature;BME280_humidity;BME280_pressure;Samples;Min_cycle;Max_cycle;Signal;HPM_P1;HPM_P2
2023/03/19 00:01:55;;;;;;;28.85;14.52;;;;;;;;;;5027419;28;20040;-56
2023/03/19 00:04:21;;;;;;;34.05;15.32;;;;;;;;;;5027273;28;20115;-55
2023/03/19 00:06:46;;;;;;;32.38;14.93;;;;;;;;;;5027380;28;20073;-54
2023/03/19 00:09:11;;;;;;;27.42;13.95;;;;;;;;;;5027256;28;20024;-53
2023/03/19 00:11:37;;;;;;;27.13;13.77;;;;;;;;;;5027371;28;20025;-55
2023/03/19 00:14:02;;;;;;;24.30;13.23;;;;;;;;;;5027452;28;20024;-56
2023/03/19 00:16:28;;;;;;;25.33;13.68;;;;;;;;;;5026977;28;20116;-56
2023/03/19 00:18:53;;;;;;;29.27;13.88;;;;;;;;;;5027119;28;20033;-55
2023/03/19 00:21:19;;;;;;;28.45;13.40;;;;;;;;;;5026970;28;20029;-54
2023/03/19 00:23:45;;;;;;;27.42;12.32;;;;;;;;;;5026542;28;20028;-51
2023/03/19 00:26:10;;;;;;;23.83;13.30;;;;;;;;;;5026481;28;20017;-55
2023/03/19 00:28:36;;;;;;;23.83;11.80;;;;;;;;;;5008389;28;20112;-54
2023/03/19 00:31:15;;;;;;;27.95;13.30;;;;;;;;;;5025938;28;20057;-53
2023/03/19 00:33:41;;;;;;;23.53;11.93;;;;;;;;;;5026276;28;20026;-55
2023/03/19 00:36:07;;;;;;;25.90;13.05;;;;;;;;;;5026173;28;20458;-54
2023/03/19 00:38:33;;;;;;;26.88;13.85;;;;;;;;;;5026191;28;20025;-52
2023/03/19 00:40:59;;;;;;;24.88;12.43;;;;;;;;;;5042981;28;20140;-56
2023/03/19 00:43:24;;;;;;;25.02;12.27;;;;;;;;;;5043078;28;20104;-56
2023/03/19 00:45:50;;;;;;;23.65;12.40;;;;;;;;;;5042882;28;20083;-54
2023/03/19 00:48:16;;;;;;;22.20;11.77;;;;;;;;;;5043178;28;20210;-53
2023/03/19 00:50:41;;;;;;;22.88;11.45;;;;;;;;;;5042832;28;20041;-55
2023/03/19 00:53:06;;;;;;;22.75;11.85;;;;;;;;;;5042998;28;20430;-53
2023/03/19 00:55:31;;;;;;;26.05;11.48;;;;;;;;;;5042871;28;20052;-55
2023/03/19 00:57:57;;;;;;;25.20;12.02;;;;;;;;;;5041991;28;20210;-52
2023/03/19 01:00:22;;;;;;;21.10;11.32;;;;;;;;;;5042770;28;20029;-53
2023/03/19 01:02:48;;;;;;;24.38;11.90;;;;;;;;;;5042710;28;20067;-56
2023/03/19 01:05:13;;;;;;;21.02;11.10;;;;;;;;;;5042637;28;20457;-55
2023/03/19 01:07:38;;;;;;;21.95;10.88;;;;;;;;;;5042584;28;20033;-56
2023/03/19 01:10:04;;;;;;;22.17;11.23;;;;;;;;;;5042705;28;20017;-55
2023/03/19 01:12:30;;;;;;;24.05;10.77;;;;;;;;;;5030554;28;20070;-54
2023/03/19 01:14:55;;;;;;;21.02;9.98;;;;;;;;;;5023654;28;20474;-55
2023/03/19 01:17:20;;;;;;;22.25;10.38;;;;;;;;;;5025529;28;20494;-53
2023/03/19 01:19:46;;;;;;;25.67;11.57;;;;;;;;;;5025803;28;20021;-54
2023/03/19 01:22:13;;;;;;;23.98;11.43;;;;;;;;;;5025040;28;20115;-55
2023/03/19 01:24:38;;;;;;;23.70;10.45;;;;;;;;;;5025803;28;20033;-53
2023/03/19 01:27:03;;;;;;;23.42;10.40;;;;;;;;;;5025644;28;20021;-50
2023/03/19 01:29:29;;;;;;;18.33;10.65;;;;;;;;;;5025290;28;20056;-55
2023/03/19 01:31:55;;;;;;;18.88;9.80;;;;;;;;;;5025475;28;20030;-52
2023/03/19 01:34:20;;;;;;;20.67;10.43;;;;;;;;;;5024970;28;20461;-55
2023/03/19 01:36:45;;;;;;;20.95;10.52;;;;;;;;;;5024795;28;20025;-55
2023/03/19 01:39:11;;;;;;;22.08;10.05;;;;;;;;;;5025355;28;20526;-54
2023/03/19 01:41:36;;;;;;;20.40;9.68;;;;;;;;;;5025145;28;20040;-55
2023/03/19 01:44:01;;;;;;;17.77;9.13;;;;;;;;;;5025171;28;20021;-53
2023/03/19 01:46:32;;;;;;;18.85;9.40;;;;;;;;;;5025198;28;20025;-55
2023/03/19 01:49:01;;;;;;;17.00;9.20;;;;;;;;;;5024984;28;20052;-54
2023/03/19 01:51:28;;;;;;;18.63;9.32;;;;;;;;;;5025227;28;20037;-52
2023/03/19 01:54:02;;;;;;;16.15;8.23;;;;;;;;;;5022763;28;20574;-55
2023/03/19 01:56:31;;;;;;;17.70;9.02;;;;;;;;;;5005881;28;20538;-53
2023/03/19 01:58:59;;;;;;;15.70;8.40;;;;;;;;;;5025194;28;20029;-53
2023/03/19 02:01:26;;;;;;;19.38;8.98;;;;;;;;;;5024822;28;20033;-52
2023/03/19 02:03:52;;;;;;;17.40;9.15;;;;;;;;;;5022507;28;20057;-53
2023/03/19 02:06:18;;;;;;;16.73;8.20;;;;;;;;;;5024744;28;20064;-56
2023/03/19 02:08:44;;;;;;;16.38;8.52;;;;;;;;;;5025237;28;20028;-55
2023/03/19 02:11:10;;;;;;;16.88;7.97;;;;;;;;;;5028488;28;20025;-50
2023/03/19 02:13:35;;;;;;;15.10;7.60;;;;;;;;;;5028967;28;20075;-54
2023/03/19 02:16:01;;;;;;;15.35;7.43;;;;;;;;;;5028953;28;20112;-53
2023/03/19 02:18:26;;;;;;;13.95;7.97;;;;;;;;;;5028784;28;20025;-55
2023/03/19 02:21:04;;;;;;;18.05;7.93;;;;;;;;;;5028489;28;20486;-54
2023/03/19 02:23:33;;;;;;;12.48;7.18;;;;;;;;;;5028748;28;20024;-53
2023/03/19 02:26:02;;;;;;;15.57;7.95;;;;;;;;;;5028761;28;20022;-56
2023/03/19 02:28:28;;;;;;;15.60;8.10;;;;;;;;;;5028603;28;20045;-54
2023/03/19 02:30:53;;;;;;;14.65;8.10;;;;;;;;;;5028327;28;20089;-54
2023/03/19 02:33:19;;;;;;;13.50;7.32;;;;;;;;;;5009279;28;20048;-51
2023/03/19 02:35:46;;;;;;;13.57;7.22;;;;;;;;;;5028737;28;20021;-57
2023/03/19 02:38:12;;;;;;;12.60;6.70;;;;;;;;;;5028399;28;20025;-51
2023/03/19 02:40:40;;;;;;;14.65;6.90;;;;;;;;;;5028170;28;20028;-54
2023/03/19 02:43:05;;;;;;;16.67;7.65;;;;;;;;;;5028546;28;20021;-57
2023/03/19 02:45:31;;;;;;;14.15;7.07;;;;;;;;;;5028309;28;20383;-53
2023/03/19 02:47:57;;;;;;;14.07;7.20;;;;;;;;;;5028682;28;20375;-52
2023/03/19 02:50:22;;;;;;;13.45;6.60;;;;;;;;;;5028069;28;20072;-56
2023/03/19 02:52:48;;;;;;;15.07;6.95;;;;;;;;;;5009105;28;20036;-52
2023/03/19 02:55:13;;;;;;;14.00;7.35;;;;;;;;;;5028577;28;20025;-55
2023/03/19 02:57:39;;;;;;;18.02;7.35;;;;;;;;;;5027054;28;20021;-52
2023/03/19 03:00:05;;;;;;;12.98;7.05;;;;;;;;;;5026784;28;20029;-56
2023/03/19 03:02:31;;;;;;;12.45;6.97;;;;;;;;;;5028117;28;20171;-55
2023/03/19 03:04:56;;;;;;;13.32;7.20;;;;;;;;;;5028161;28;20100;-57
2023/03/19 03:07:21;;;;;;;15.95;7.75;;;;;;;;;;5027799;28;20531;-50
2023/03/19 03:09:47;;;;;;;17.98;7.63;;;;;;;;;;5027997;28;20025;-54
2023/03/19 03:12:12;;;;;;;14.95;6.93;;;;;;;;;;5028071;28;20120;-55
2023/03/19 03:14:37;;;;;;;16.42;7.40;;;;;;;;;;5026483;28;20160;-55
2023/03/19 03:17:03;;;;;;;12.95;6.70;;;;;;;;;;5027851;28;20254;-56
2023/03/19 03:19:28;;;;;;;15.02;7.07;;;;;;;;;;5027540;28;20037;-52
2023/03/19 03:21:54;;;;;;;13.90;6.85;;;;;;;;;;5026662;28;20079;-56
2023/03/19 03:24:19;;;;;;;13.23;6.88;;;;;;;;;;5027944;28;20550;-56
2023/03/19 03:26:45;;;;;;;13.63;7.40;;;;;;;;;;5027692;28;20729;-54
2023/03/19 03:29:10;;;;;;;14.27;7.53;;;;;;;;;;5027257;28;20029;-53
2023/03/19 03:31:35;;;;;;;19.88;7.35;;;;;;;;;;5027586;28;20037;-56
2023/03/19 03:34:01;;;;;;;15.18;7.82;;;;;;;;;;5027795;28;20021;-52
2023/03/19 03:36:26;;;;;;;14.10;7.15;;;;;;;;;;5027055;28;20053;-51
2023/03/19 03:38:52;;;;;;;12.93;6.65;;;;;;;;;;5024641;28;20033;-55
2023/03/19 03:41:17;;;;;;;15.77;7.15;;;;;;;;;;5027395;28;20026;-55
2023/03/19 03:43:43;;;;;;;12.85;6.20;;;;;;;;;;5024735;28;20033;-51
2023/03/19 03:46:08;;;;;;;14.93;7.10;;;;;;;;;;5027468;28;20100;-55
2023/03/19 03:48:34;;;;;;;9.45;6.03;;;;;;;;;;5027189;28;20025;-54
2023/03/19 03:51:00;;;;;;;16.65;7.45;;;;;;;;;;5027673;28;20022;-53
2023/03/19 03:53:25;;;;;;;12.07;6.45;;;;;;;;;;5027152;28;20108;-52
2023/03/19 03:55:50;;;;;;;12.13;6.00;;;;;;;;;;5027161;28;20045;-56
2023/03/19 03:58:16;;;;;;;14.70;7.05;;;;;;;;;;5027023;28;20017;-52
2023/03/19 04:00:41;;;;;;;11.38;5.88;;;;;;;;;;5026933;28;20025;-52
2023/03/19 04:03:07;;;;;;;15.00;6.95;;;;;;;;;;5026994;28;20021;-55
2023/03/19 04:05:32;;;;;;;17.55;7.55;;;;;;;;;;5026743;28;20095;-54
2023/03/19 04:07:58;;;;;;;14.52;7.13;;;;;;;;;;5040698;28;20045;-54
2023/03/19 04:10:23;;;;;;;15.27;6.78;;;;;;;;;;5026910;28;20033;-51
2023/03/19 04:12:49;;;;;;;12.13;6.22;;;;;;;;;;5027016;28;20032;-53
2023/03/19 04:15:15;;;;;;;16.33;7.30;;;;;;;;;;5026745;28;20045;-55
2023/03/19 04:17:40;;;;;;;14.82;7.07;;;;;;;;;;5027013;28;20459;-51
2023/03/19 04:20:06;;;;;;;12.35;6.95;;;;;;;;;;5040596;28;20092;-54
2023/03/19 04:22:32;;;;;;;16.38;7.15;;;;;;;;;;5026375;28;20083;-53
2023/03/19 04:24:57;;;;;;;13.95;7.13;;;;;;;;;;5026770;28;20025;-56
2023/03/19 04:27:23;;;;;;;13.23;7.00;;;;;;;;;;5026714;28;20025;-54
2023/03/19 04:29:48;;;;;;;12.02;6.68;;;;;;;;;;5026130;28;20049;-54
2023/03/19 04:32:14;;;;;;;13.20;6.88;;;;;;;;;;5026353;28;20056;-55
2023/03/19 04:34:40;;;;;;;14.57;7.05;;;;;;;;;;5026501;28;20025;-54
2023/03/19 04:37:06;;;;;;;15.45;7.55;;;;;;;;;;5026268;28;20028;-55
2023/03/19 04:39:32;;;;;;;13.40;7.78;;;;;;;;;;5026481;28;20021;-54
2023/03/19 04:41:57;;;;;;;14.98;7.05;;;;;;;;;;5026487;28;20026;-55
2023/03/19 04:44:23;;;;;;;12.95;7.45;;;;;;;;;;5026187;28;20458;-54
2023/03/19 04:46:48;;;;;;;10.90;6.82;;;;;;;;;;5026241;28;20033;-56
2023/03/19 04:49:14;;;;;;;16.02;7.50;;;;;;;;;;5026179;28;20493;-53
2023/03/19 04:51:40;;;;;;;13.48;6.95;;;;;;;;;;5025997;28;20524;-55
2023/03/19 04:54:06;;;;;;;19.42;8.52;;;;;;;;;;5026075;28;20254;-53
2023/03/19 04:56:31;;;;;;;13.32;6.80;;;;;;;;;;5026372;28;20221;-52
2023/03/19 04:58:56;;;;;;;12.52;6.38;;;;;;;;;;5026485;28;20121;-53
2023/03/19 05:01:22;;;;;;;13.55;7.00;;;;;;;;;;5026268;28;20150;-51
2023/03/19 05:03:47;;;;;;;19.88;7.70;;;;;;;;;;5026002;28;20352;-52
2023/03/19 05:06:12;;;;;;;14.52;8.05;;;;;;;;;;5025874;28;20022;-54
2023/03/19 05:08:38;;;;;;;13.82;7.68;;;;;;;;;;5026021;28;20052;-52
2023/03/19 05:11:03;;;;;;;16.42;8.00;;;;;;;;;;5025840;28;20048;-52
2023/03/19 05:13:28;;;;;;;14.25;7.72;;;;;;;;;;5025426;28;20078;-56
2023/03/19 05:15:54;;;;;;;15.23;7.85;;;;;;;;;;5025666;28;20025;-55
2023/03/19 05:18:20;;;;;;;18.40;7.88;;;;;;;;;;5025829;28;20037;-57
2023/03/19 05:20:45;;;;;;;15.35;7.32;;;;;;;;;;5025415;28;20040;-57
2023/03/19 05:23:11;;;;;;;18.90;8.15;;;;;;;;;;5025802;28;20459;-57
2023/03/19 05:25:36;;;;;;;17.25;8.70;;;;;;;;;;5026178;28;20546;-56
2023/03/19 05:28:02;;;;;;;17.55;8.15;;;;;;;;;;5025700;28;20032;-57
2023/03/19 05:30:28;;;;;;;18.85;9.20;;;;;;;;;;5025715;28;20041;-57
2023/03/19 05:32:54;;;;;;;20.63;10.40;;;;;;;;;;5025770;28;20026;-57
2023/03/19 05:35:20;;;;;;;19.05;8.57;;;;;;;;;;5025447;28;20033;-57
2023/03/19 05:37:45;;;;;;;17.73;8.18;;;;;;;;;;5025655;28;20445;-58
2023/03/19 05:40:11;;;;;;;18.55;9.02;;;;;;;;;;5025576;28;20025;-58
2023/03/19 05:42:36;;;;;;;17.63;9.27;;;;;;;;;;5025513;28;20034;-58
2023/03/19 05:45:03;;;;;;;18.00;9.52;;;;;;;;;;5024878;28;20631;-54
2023/03/19 05:47:28;;;;;;;20.05;8.90;;;;;;;;;;5025614;28;20021;-55
2023/03/19 05:49:53;;;;;;;17.02;8.73;;;;;;;;;;5025250;28;20021;-58
2023/03/19 05:52:19;;;;;;;16.92;8.20;;;;;;;;;;5026018;28;20030;-55
2023/03/19 05:54:48;;;;;;;14.95;7.97;;;;;;;;;;5025175;28;20025;-59
2023/03/19 05:57:13;;;;;;;18.38;9.45;;;;;;;;;;5025521;28;20053;-57
2023/03/19 05:59:38;;;;;;;18.73;9.10;;;;;;;;;;5025527;28;20080;-58
2023/03/19 06:02:04;;;;;;;21.83;9.38;;;;;;;;;;5025211;28;20037;-58
2023/03/19 06:04:29;;;;;;;23.13;10.60;;;;;;;;;;5025038;28;20104;-58
2023/03/19 06:06:54;;;;;;;23.05;10.32;;;;;;;;;;5024883;28;20022;-59
2023/03/19 06:09:19;;;;;;;19.70;9.85;;;;;;;;;;5025301;28;20037;-57
2023/03/19 06:11:45;;;;;;;23.40;10.45;;;;;;;;;;5025060;28;20459;-58
2023/03/19 06:14:10;;;;;;;23.23;9.82;;;;;;;;;;5025064;28;20408;-58
2023/03/19 06:16:36;;;;;;;18.33;9.73;;;;;;;;;;5025238;28;20021;-58
2023/03/19 06:19:01;;;;;;;24.58;10.63;;;;;;;;;;5025456;28;20034;-58
2023/03/19 06:21:28;;;;;;;24.33;10.65;;;;;;;;;;5024876;28;20026;-59
2023/03/19 06:23:57;;;;;;;20.30;9.45;;;;;;;;;;5025032;28;20104;-59
2023/03/19 06:26:22;;;;;;;21.00;10.30;;;;;;;;;;5024771;28;20386;-55
2023/03/19 06:28:47;;;;;;;20.05;10.20;;;;;;;;;;5024778;28;20330;-58
2023/03/19 06:31:13;;;;;;;20.33;9.57;;;;;;;;;;5024766;28;20654;-58
2023/03/19 06:33:38;;;;;;;17.80;9.70;;;;;;;;;;5024965;28;20032;-59
2023/03/19 06:36:04;;;;;;;17.35;8.85;;;;;;;;;;5025052;28;20459;-58
2023/03/19 06:38:29;;;;;;;14.63;8.75;;;;;;;;;;5024622;28;20561;-57
2023/03/19 06:40:54;;;;;;;16.42;8.65;;;;;;;;;;5024782;28;20337;-59
2023/03/19 06:43:20;;;;;;;15.07;8.77;;;;;;;;;;5024964;28;20025;-58
2023/03/19 06:45:46;;;;;;;13.93;7.78;;;;;;;;;;5024830;28;20610;-59
2023/03/19 06:48:11;;;;;;;16.05;8.60;;;;;;;;;;5024890;28;20025;-58
2023/03/19 06:50:37;;;;;;;17.73;7.18;;;;;;;;;;5024589;28;20110;-58
2023/03/19 06:53:03;;;;;;;14.45;7.25;;;;;;;;;;5024820;28;20124;-59
2023/03/19 06:55:29;;;;;;;12.82;8.05;;;;;;;;;;5024777;28;21022;-58
2023/03/19 06:57:55;;;;;;;15.07;8.30;;;;;;;;;;5027793;28;20017;-57
2023/03/19 07:00:21;;;;;;;16.10;8.10;;;;;;;;;;5028160;28;20060;-59
2023/03/19 07:02:46;;;;;;;13.70;7.32;;;;;;;;;;5027735;28;20478;-58
2023/03/19 07:05:12;;;;;;;14.80;7.82;;;;;;;;;;5028197;28;20477;-59
2023/03/19 07:07:37;;;;;;;15.70;8.27;;;;;;;;;;5028117;28;20017;-59
2023/03/19 07:10:02;;;;;;;23.63;11.32;;;;;;;;;;5028113;28;20462;-56
2023/03/19 07:12:28;;;;;;;17.00;8.52;;;;;;;;;;5041704;28;20060;-59
2023/03/19 07:14:54;;;;;;;17.63;10.43;;;;;;;;;;5028260;28;20778;-57
2023/03/19 07:17:20;;;;;;;15.30;8.65;;;;;;;;;;5027843;28;20112;-55
2023/03/19 07:19:46;;;;;;;15.35;7.57;;;;;;;;;;5028236;28;20108;-60
2023/03/19 07:22:11;;;;;;;14.07;7.60;;;;;;;;;;5027585;28;20033;-58
2023/03/19 07:24:36;;;;;;;15.60;8.07;;;;;;;;;;5027794;28;20026;-59
2023/03/19 07:27:02;;;;;;;12.38;7.15;;;;;;;;;;5026084;28;20187;-58
2023/03/19 07:29:27;;;;;;;13.43;7.70;;;;;;;;;;5040914;28;20049;-59
2023/03/19 07:31:52;;;;;;;14.40;7.72;;;;;;;;;;5027386;28;20036;-59
2023/03/19 07:34:17;;;;;;;13.57;7.40;;;;;;;;;;5027098;28;20029;-58
2023/03/19 07:36:43;;;;;;;12.23;7.35;;;;;;;;;;5027439;28;20500;-57
2023/03/19 07:39:08;;;;;;;15.50;7.45;;;;;;;;;;5027861;28;20166;-58
2023/03/19 07:41:34;;;;;;;13.45;7.75;;;;;;;;;;5027335;28;20029;-56
2023/03/19 07:43:59;;;;;;;16.85;7.63;;;;;;;;;;5027421;28;20124;-56
2023/03/19 07:46:25;;;;;;;11.80;6.70;;;;;;;;;;5027561;28;20022;-59
2023/03/19 07:48:51;;;;;;;14.85;7.75;;;;;;;;;;5027440;28;20018;-59
2023/03/19 07:51:16;;;;;;;11.27;7.18;;;;;;;;;;5026932;28;20106;-59
2023/03/19 07:53:41;;;;;;;11.73;7.07;;;;;;;;;;5027246;28;20501;-57
2023/03/19 07:56:07;;;;;;;14.02;7.85;;;;;;;;;;5027155;28;20021;-58
2023/03/19 07:58:32;;;;;;;12.90;6.72;;;;;;;;;;5026960;28;20025;-56
2023/03/19 08:00:57;;;;;;;17.50;8.02;;;;;;;;;;5026790;28;20079;-59
2023/03/19 08:03:23;;;;;;;13.35;7.63;;;;;;;;;;5024199;28;20037;-59
2023/03/19 08:05:48;;;;;;;15.82;6.75;;;;;;;;;;5026859;28;20028;-57
2023/03/19 08:08:14;;;;;;;15.32;7.30;;;;;;;;;;5027025;28;20029;-57
2023/03/19 08:10:39;;;;;;;11.55;6.78;;;;;;;;;;5026819;28;20418;-57
2023/03/19 08:13:05;;;;;;;9.15;5.63;;;;;;;;;;5026796;28;20402;-58
2023/03/19 08:15:30;;;;;;;13.60;6.32;;;;;;;;;;5026756;28;20029;-58
2023/03/19 08:17:56;;;;;;;8.70;5.68;;;;;;;;;;5026467;28;20485;-57
2023/03/19 08:20:22;;;;;;;9.35;5.40;;;;;;;;;;5026924;28;20017;-59
2023/03/19 08:22:50;;;;;;;11.18;6.28;;;;;;;;;;5026464;28;20044;-57
2023/03/19 08:25:15;;;;;;;8.88;6.00;;;;;;;;;;5026674;28;20465;-58
2023/03/19 08:27:41;;;;;;;8.25;5.97;;;;;;;;;;5026703;28;20045;-57
2023/03/19 08:30:07;;;;;;;12.18;5.85;;;;;;;;;;5026260;28;20052;-56
2023/03/19 08:32:32;;;;;;;10.25;5.35;;;;;;;;;;5026088;28;20029;-56
2023/03/19 08:34:57;;;;;;;11.18;6.47;;;;;;;;;;5026274;28;20037;-57
2023/03/19 08:37:23;;;;;;;13.88;6.05;;;;;;;;;;5026412;28;20653;-58
2023/03/19 08:39:51;;;;;;;8.98;5.28;;;;;;;;;;5026329;28;20022;-58
2023/03/19 08:42:17;;;;;;;12.32;6.05;;;;;;;;;;5026142;28;20367;-59
2023/03/19 08:44:43;;;;;;;10.95;5.53;;;;;;;;;;5026011;28;20049;-57
2023/03/19 08:47:08;;;;;;;9.45;5.57;;;;;;;;;;5026221;28;21237;-59
2023/03/19 08:49:33;;;;;;;10.95;5.82;;;;;;;;;;5025776;28;20433;-54
2023/03/19 08:51:58;;;;;;;10.90;5.40;;;;;;;;;;5026344;28;20112;-57
2023/03/19 08:54:24;;;;;;;9.82;5.20;;;;;;;;;;5040022;28;20060;-56
2023/03/19 08:56:49;;;;;;;9.55;5.28;;;;;;;;;;5026149;28;20025;-58
2023/03/19 08:59:15;;;;;;;12.18;5.88;;;;;;;;;;5025781;28;20087;-58
2023/03/19 09:01:41;;;;;;;11.07;5.78;;;;;;;;;;5025861;28;20029;-58
2023/03/19 09:04:06;;;;;;;7.25;4.90;;;;;;;;;;5025841;28;20506;-58
2023/03/19 09:06:32;;;;;;;9.50;5.20;;;;;;;;;;5025505;28;20028;-58
2023/03/19 09:08:57;;;;;;;10.13;5.50;;;;;;;;;;5025562;28;20104;-57
2023/03/19 09:11:22;;;;;;;12.15;5.65;;;;;;;;;;5025868;28;20033;-59
2023/03/19 09:13:48;;;;;;;9.18;5.38;;;;;;;;;;5025798;28;20025;-58
2023/03/19 09:16:13;;;;;;;9.27;5.00;;;;;;;;;;5025700;28;20025;-57
2023/03/19 09:18:38;;;;;;;9.07;5.05;;;;;;;;;;5025157;28;20025;-56
2023/03/19 09:21:04;;;;;;;8.73;5.32;;;;;;;;;;5024530;28;20362;-58
2023/03/19 09:23:30;;;;;;;8.63;4.82;;;;;;;;;;5026096;28;20025;-59
2023/03/19 09:25:55;;;;;;;9.00;4.90;;;;;;;;;;5025790;28;20422;-55
2023/03/19 09:28:21;;;;;;;10.23;5.22;;;;;;;;;;5025660;28;20033;-59
2023/03/19 09:30:48;;;;;;;8.15;4.97;;;;;;;;;;5024803;28;20092;-59
2023/03/19 09:33:13;;;;;;;9.63;5.68;;;;;;;;;;5025290;28;20104;-56
2023/03/19 09:35:39;;;;;;;8.60;4.55;;;;;;;;;;5056124;28;20512;-59
2023/03/19 09:38:04;;;;;;;13.15;5.63;;;;;;;;;;5025358;28;20074;-56
2023/03/19 09:40:45;;;;;;;10.63;5.18;;;;;;;;;;5025526;28;20028;-59
2023/03/19 09:43:10;;;;;;;;;;;;;;;;;;5025471;28;20030;-57
2023/03/19 09:45:35;;;;;;;7.90;4.93;;;;;;;;;;5025448;28;19912;-57
2023/03/19 09:48:06;;;;;;;8.90;5.32;;;;;;;;;;5025068;28;20025;-59
2023/03/19 09:50:33;;;;;;;9.57;5.07;;;;;;;;;;5025356;28;20018;-58
2023/03/19 09:53:14;;;;;;;7.38;4.65;;;;;;;;;;5025489;28;20069;-57
2023/03/19 09:55:41;;;;;;;9.13;5.35;;;;;;;;;;5025013;28;20014;-59
2023/03/19 09:58:33;;;;;;;7.45;4.93;;;;;;;;;;5025094;28;20021;-60
2023/03/19 10:00:59;;;;;;;10.98;5.53;;;;;;;;;;5002195;28;20076;-58
2023/03/19 10:03:44;;;;;;;10.90;5.07;;;;;;;;;;5002365;28;20030;-60
2023/03/19 10:06:28;;;;;;;9.48;5.40;;;;;;;;;;5002356;28;20096;-58
2023/03/19 10:08:53;;;;;;;8.38;5.10;;;;;;;;;;5002505;28;20501;-60
2023/03/19 10:11:19;;;;;;;10.30;5.40;;;;;;;;;;5002120;28;20112;-60
2023/03/19 10:13:45;;;;;;;8.93;4.88;;;;;;;;;;5002286;28;20026;-58
2023/03/19 10:16:15;;;;;;;9.18;4.63;;;;;;;;;;5002230;28;20028;-58
2023/03/19 10:18:43;;;;;;;9.82;5.10;;;;;;;;;;5001924;28;20037;-58
2023/03/19 10:21:31;;;;;;;6.80;4.35;;;;;;;;;;5001754;28;20026;-59
2023/03/19 10:23:59;;;;;;;12.45;5.57;;;;;;;;;;5002066;28;20032;-59
2023/03/19 10:26:29;;;;;;;7.28;4.78;;;;;;;;;;5002199;28;20486;-58
2023/03/19 10:29:02;;;;;;;9.02;4.47;;;;;;;;;;5001836;28;20030;-55
2023/03/19 10:31:28;;;;;;;7.25;4.85;;;;;;;;;;4987483;28;20054;-59
2023/03/19 10:34:00;;;;;;;8.82;4.70;;;;;;;;;;4973210;28;20030;-59
2023/03/19 10:36:29;;;;;;;7.13;5.13;;;;;;;;;;5005771;28;20030;-56
2023/03/19 10:38:55;;;;;;;9.25;4.85;;;;;;;;;;5027070;28;20391;-59
2023/03/19 10:41:26;;;;;;;6.75;4.63;;;;;;;;;;5028304;28;20025;-59
2023/03/19 10:44:00;;;;;;;8.85;4.60;;;;;;;;;;5028492;28;20406;-59
2023/03/19 10:46:25;;;;;;;10.38;4.95;;;;;;;;;;5028423;28;20063;-56
2023/03/19 10:48:50;;;;;;;13.38;5.00;;;;;;;;;;5028289;28;20072;-59
2023/03/19 10:51:19;;;;;;;7.75;4.93;;;;;;;;;;5028572;28;20048;-59
2023/03/19 10:53:44;;;;;;;7.33;4.60;;;;;;;;;;5028218;28;20034;-54
2023/03/19 10:56:21;;;;;;;11.25;4.15;;;;;;;;;;5028345;28;20254;-56
2023/03/19 10:59:05;;;;;;;11.90;4.50;;;;;;;;;;5028145;28;20014;-56
2023/03/19 11:01:32;;;;;;;8.07;4.30;;;;;;;;;;5027863;28;20030;-58
2023/03/19 11:03:58;;;;;;;8.60;4.35;;;;;;;;;;5028363;28;20028;-56
2023/03/19 11:06:30;;;;;;;8.75;4.32;;;;;;;;;;5028346;28;20031;-58
2023/03/19 11:08:56;;;;;;;10.00;4.53;;;;;;;;;;5027821;28;20025;-57
2023/03/19 11:11:33;;;;;;;6.57;4.68;;;;;;;;;;5028046;28;20422;-58
2023/03/19 11:14:04;;;;;;;9.75;4.70;;;;;;;;;;5028136;28;20216;-56
2023/03/19 11:16:30;;;;;;;9.45;4.38;;;;;;;;;;5028313;28;20110;-58
2023/03/19 11:18:55;;;;;;;13.85;4.82;;;;;;;;;;5028131;28;20498;-56
2023/03/19 11:21:20;;;;;;;11.60;4.40;;;;;;;;;;5027602;28;20033;-59
2023/03/19 11:23:50;;;;;;;6.28;4.22;;;;;;;;;;5024679;28;20038;-59
2023/03/19 11:26:18;;;;;;;6.85;4.18;;;;;;;;;;5027886;28;20057;-59
2023/03/19 11:28:43;;;;;;;7.57;4.20;;;;;;;;;;5028078;28;20817;-58
2023/03/19 11:31:18;;;;;;;7.22;4.32;;;;;;;;;;5027439;28;20511;-58
2023/03/19 11:33:58;;;;;;;8.75;4.35;;;;;;;;;;5027545;28;20116;-60
2023/03/19 11:36:24;;;;;;;5.70;4.43;;;;;;;;;;5027702;28;20364;-57
2023/03/19 11:39:02;;;;;;;9.13;4.38;;;;;;;;;;5027307;28;20056;-57
2023/03/19 11:41:33;;;;;;;13.10;5.00;;;;;;;;;;5027355;28;20029;-57
2023/03/19 11:44:03;;;;;;;13.93;5.00;;;;;;;;;;5027010;28;20021;-57
2023/03/19 11:46:28;;;;;;;29.45;13.95;;;;;;;;;;5027986;28;20014;-60
2023/03/19 11:49:12;;;;;;;7.80;4.30;;;;;;;;;;5027090;28;20398;-59
2023/03/19 11:51:43;;;;;;;6.60;3.90;;;;;;;;;;5027657;28;20780;-59
2023/03/19 11:54:20;;;;;;;7.05;3.80;;;;;;;;;;5027113;28;20079;-57
2023/03/19 11:56:59;;;;;;;9.55;3.78;;;;;;;;;;5027236;28;20049;-59
2023/03/19 11:59:36;;;;;;;6.20;3.70;;;;;;;;;;5026991;28;20025;-57
2023/03/19 12:02:21;;;;;;;7.05;3.65;;;;;;;;;;5024480;28;20427;-60
2023/03/19 12:04:46;;;;;;;7.57;3.58;;;;;;;;;;5026794;28;20484;-59
2023/03/19 12:07:11;;;;;;;7.83;4.23;;;;;;;;;;5027090;28;20021;-59
2023/03/19 12:09:42;;;;;;;6.07;3.23;;;;;;;;;;5025284;28;20261;-55
2023/03/19 12:12:17;;;;;;;6.15;3.60;;;;;;;;;;5026864;28;20263;-59
2023/03/19 12:15:01;;;;;;;5.85;3.85;;;;;;;;;;5026810;28;20026;-57
2023/03/19 12:17:40;;;;;;;11.20;4.30;;;;;;;;;;5026712;28;20041;-56
2023/03/19 12:20:24;;;;;;;11.00;4.32;;;;;;;;;;5026615;28;20021;-55
2023/03/19 12:23:04;;;;;;;7.03;3.70;;;;;;;;;;5026427;28;20103;-57
2023/03/19 12:25:29;;;;;;;7.72;3.58;;;;;;;;;;5024782;28;20359;-59
2023/03/19 12:28:01;;;;;;;7.00;3.67;;;;;;;;;;5026817;28;20032;-56
2023/03/19 12:30:35;;;;;;;8.30;4.30;;;;;;;;;;5026474;28;20046;-58
2023/03/19 12:33:08;;;;;;;6.10;3.78;;;;;;;;;;5026661;28;20083;-58
2023/03/19 12:35:34;;;;;;;11.85;5.05;;;;;;;;;;5026664;28;20429;-57
2023/03/19 12:38:03;;;;;;;7.55;5.32;;;;;;;;;;5024829;28;20052;-57
2023/03/19 12:40:28;;;;;;;6.75;4.65;;;;;;;;;;5025950;28;20033;-58
2023/03/19 12:42:57;;;;;;;6.82;3.50;;;;;;;;;;5026528;28;20761;-58
2023/03/19 12:45:55;;;;;;;7.00;3.83;;;;;;;;;;5026433;28;20056;-55
2023/03/19 12:48:23;;;;;;;11.27;4.20;;;;;;;;;;4983961;28;20038;-56
2023/03/19 12:50:51;;;;;;;8.05;3.92;;;;;;;;;;4951207;28;20046;-56
2023/03/19 12:53:35;;;;;;;6.65;3.85;;;;;;;;;;4983783;28;20487;-56
2023/03/19 12:56:05;;;;;;;7.50;4.40;;;;;;;;;;4983627;28;20404;-55
2023/03/19 12:58:39;;;;;;;5.68;3.75;;;;;;;;;;4983468;28;20033;-58
2023/03/19 13:01:07;;;;;;;8.85;3.63;;;;;;;;;;4983653;28;20022;-57
2023/03/19 13:03:39;;;;;;;6.05;4.03;;;;;;;;;;4983321;28;20030;-57
2023/03/19 13:06:16;;;;;;;6.47;3.60;;;;;;;;;;4983496;28;20033;-59
2023/03/19 13:08:48;;;;;;;6.80;4.05;;;;;;;;;;4983440;28;20030;-59
2023/03/19 13:11:17;;;;;;;6.07;3.58;;;;;;;;;;4983761;28;20326;-59
2023/03/19 13:13:57;;;;;;;7.78;3.97;;;;;;;;;;4983323;28;20423;-57
2023/03/19 13:16:44;;;;;;;7.03;3.60;;;;;;;;;;4983450;28;20085;-59
2023/03/19 13:19:18;;;;;;;13.02;4.07;;;;;;;;;;4983682;28;20127;-58
2023/03/19 13:21:44;;;;;;;7.03;3.88;;;;;;;;;;4982838;28;20062;-57
2023/03/19 13:24:19;;;;;;;7.63;4.05;;;;;;;;;;5007197;28;20033;-56
2023/03/19 13:26:46;;;;;;;7.20;4.28;;;;;;;;;;5025285;28;20060;-57
2023/03/19 13:29:18;;;;;;;8.05;4.75;;;;;;;;;;5025157;28;20105;-58
2023/03/19 13:31:45;;;;;;;8.38;3.70;;;;;;;;;;5025506;28;20393;-58
2023/03/19 13:34:16;;;;;;;8.02;4.20;;;;;;;;;;5025477;28;20133;-54
2023/03/19 13:36:45;;;;;;;9.63;4.13;;;;;;;;;;5025233;28;20053;-56
2023/03/19 13:39:28;;;;;;;6.28;3.58;;;;;;;;;;5025398;28;20381;-54
2023/03/19 13:42:08;;;;;;;6.47;4.18;;;;;;;;;;5025383;28;20041;-56
2023/03/19 13:44:55;;;;;;;8.85;4.22;;;;;;;;;;5025101;28;20026;-58
2023/03/19 13:47:35;;;;;;;11.55;4.55;;;;;;;;;;5025511;28;20026;-54
2023/03/19 13:50:11;;;;;;;6.47;4.35;;;;;;;;;;5025498;28;20121;-56
2023/03/19 13:52:43;;;;;;;9.07;4.75;;;;;;;;;;5025358;28;20030;-57
2023/03/19 13:55:31;;;;;;;5.68;4.07;;;;;;;;;;5023915;28;20160;-59
2023/03/19 13:58:15;;;;;;;9.30;5.10;;;;;;;;;;5025081;28;20025;-57
2023/03/19 14:00:44;;;;;;;7.38;4.05;;;;;;;;;;5025435;28;20014;-59
2023/03/19 14:03:22;;;;;;;8.07;4.53;;;;;;;;;;5025046;28;20068;-58
2023/03/19 14:05:49;;;;;;;6.53;4.38;;;;;;;;;;5040591;28;20030;-58
2023/03/19 14:08:18;;;;;;;7.97;4.57;;;;;;;;;;5029257;28;20514;-58
2023/03/19 14:10:49;;;;;;;5.55;4.22;;;;;;;;;;5028879;28;20696;-57
2023/03/19 14:13:20;;;;;;;7.03;4.28;;;;;;;;;;5029516;28;20035;-58
2023/03/19 14:15:50;;;;;;;9.15;4.97;;;;;;;;;;5028997;28;20029;-57
2023/03/19 14:18:18;;;;;;;13.48;4.57;;;;;;;;;;5028538;28;20064;-57
2023/03/19 14:20:48;;;;;;;8.88;4.05;;;;;;;;;;5028861;28;20048;-57
2023/03/19 14:23:19;;;;;;;7.45;4.18;;;;;;;;;;5028725;28;20367;-53
2023/03/19 14:25:57;;;;;;;5.90;3.90;;;;;;;;;;5028641;28;20021;-57
2023/03/19 14:28:25;;;;;;;7.22;4.30;;;;;;;;;;5028352;28;20064;-58
2023/03/19 14:30:50;;;;;;;10.57;4.43;;;;;;;;;;5028139;28;20349;-58
2023/03/19 14:33:21;;;;;;;7.88;4.10;;;;;;;;;;5028447;28;20544;-56
2023/03/19 14:35:47;;;;;;;8.75;4.63;;;;;;;;;;5028701;28;20026;-58
2023/03/19 14:38:21;;;;;;;10.43;4.05;;;;;;;;;;5028314;28;20052;-58